createdAt,value
2024-01-24T00:01:26.473Z,1.90
2024-01-24T00:03:54.675Z,1.90
2024-01-24T00:06:22.987Z,1.90
2024-01-24T00:08:52.144Z,1.90
2024-01-24T00:11:20.316Z,1.90
2024-01-24T00:13:48.457Z,1.90
2024-01-24T00:16:16.596Z,1.90
2024-01-24T00:18:44.719Z,1.80
2024-01-24T00:21:12.963Z,1.90
2024-01-24T00:23:41.052Z,1.96
2024-01-24T00:26:09.101Z,1.90
2024-01-24T00:28:37.251Z,1.80
2024-01-24T00:31:05.456Z,1.82
2024-01-24T00:33:33.695Z,1.80
2024-01-24T00:36:01.861Z,1.80
2024-01-24T00:38:30.038Z,1.70
2024-01-24T00:40:58.174Z,1.50
2024-01-24T00:43:27.169Z,1.50
2024-01-24T00:45:55.994Z,1.40
2024-01-24T00:48:24.474Z,1.30
2024-01-24T00:50:52.753Z,1.30
2024-01-24T00:53:21.483Z,1.14
2024-01-24T00:55:49.872Z,1.00
2024-01-24T00:58:18.552Z,1.00
2024-01-24T01:00:46.867Z,0.98
2024-01-24T01:03:15.174Z,0.90
2024-01-24T01:05:43.550Z,0.90
2024-01-24T01:08:11.774Z,0.90
2024-01-24T01:10:40.009Z,0.90
2024-01-24T01:13:08.168Z,0.80
2024-01-24T01:15:36.332Z,0.70
2024-01-24T01:18:05.277Z,0.70
2024-01-24T01:20:33.375Z,0.70
2024-01-24T01:23:01.558Z,0.60
2024-01-24T01:25:29.728Z,0.58
2024-01-24T01:27:57.812Z,0.40
2024-01-24T01:30:26.032Z,0.40
2024-01-24T01:32:54.259Z,0.40
2024-01-24T01:35:22.508Z,0.44
2024-01-24T01:37:50.615Z,0.40
2024-01-24T01:40:18.693Z,0.48
2024-01-24T01:42:46.934Z,0.50
2024-01-24T01:45:15.216Z,0.60
2024-01-24T01:47:44.824Z,0.60
2024-01-24T01:50:15.418Z,0.60
2024-01-24T01:52:43.587Z,0.60
2024-01-24T01:55:12.046Z,0.60
2024-01-24T01:57:43.371Z,0.70
2024-01-24T02:00:12.278Z,0.70
2024-01-24T02:02:40.443Z,0.70
2024-01-24T02:05:08.748Z,0.60
2024-01-24T02:07:38.103Z,0.64
2024-01-24T02:10:06.530Z,0.70
2024-01-24T02:12:34.632Z,0.74
2024-01-24T02:15:03.144Z,0.62
2024-01-24T02:17:31.388Z,0.44
2024-01-24T02:19:59.504Z,0.30
2024-01-24T02:22:27.816Z,0.10
2024-01-24T02:24:56.051Z,0.00
2024-01-24T02:27:24.148Z,-0.14
2024-01-24T02:29:52.220Z,-0.16
2024-01-24T02:32:20.508Z,-0.26
2024-01-24T02:34:48.773Z,-0.40
2024-01-24T02:37:17.148Z,-0.52
2024-01-24T02:39:45.448Z,-0.68
2024-01-24T02:42:13.733Z,-0.56
2024-01-24T02:44:41.782Z,-0.42
2024-01-24T02:47:10.760Z,-0.40
2024-01-24T02:49:40.395Z,-0.40
2024-01-24T02:52:08.518Z,-0.36
2024-01-24T02:54:40.101Z,-0.30
2024-01-24T02:57:08.464Z,-0.30
2024-01-24T02:59:36.840Z,-0.30
2024-01-24T03:02:04.966Z,-0.30
2024-01-24T03:04:33.130Z,-0.28
2024-01-24T03:07:01.288Z,-0.30
2024-01-24T03:09:29.510Z,-0.22
2024-01-24T03:11:57.667Z,-0.38
2024-01-24T03:14:26.061Z,-0.50
2024-01-24T03:16:54.184Z,-0.56
2024-01-24T03:19:22.409Z,-0.60
2024-01-24T03:21:50.698Z,-0.84
2024-01-24T03:24:18.939Z,-1.00
2024-01-24T03:26:47.080Z,-1.10
2024-01-24T03:29:15.084Z,-1.22
2024-01-24T03:31:44.560Z,-1.30
2024-01-24T03:34:13.110Z,-1.36
2024-01-24T03:36:41.399Z,-1.36
2024-01-24T03:39:12.783Z,-1.30
2024-01-24T03:41:41.001Z,-1.28
2024-01-24T03:44:09.098Z,-1.14
2024-01-24T03:46:37.233Z,-0.92
2024-01-24T03:49:05.484Z,-0.80
2024-01-24T03:51:33.753Z,-0.62
2024-01-24T03:54:01.941Z,-0.48
2024-01-24T03:56:30.095Z,-0.40
2024-01-24T03:58:58.355Z,-0.30
2024-01-24T04:01:26.474Z,-0.20
2024-01-24T04:03:54.819Z,-0.20
2024-01-24T04:06:23.253Z,-0.20
2024-01-24T04:08:51.476Z,-0.28
2024-01-24T04:11:20.230Z,-0.24
2024-01-24T04:13:53.562Z,-0.20
2024-01-24T04:16:21.727Z,-0.12
2024-01-24T04:18:51.753Z,-0.10
2024-01-24T04:21:19.932Z,-0.10
2024-01-24T04:23:48.140Z,-0.10
2024-01-24T04:26:17.421Z,-0.10
2024-01-24T04:28:45.528Z,-0.10
2024-01-24T04:31:13.577Z,0.00
2024-01-24T04:33:41.875Z,0.00
2024-01-24T04:36:10.630Z,0.10
2024-01-24T04:38:40.072Z,0.10
2024-01-24T04:41:09.638Z,0.10
2024-01-24T04:43:37.813Z,0.18
2024-01-24T04:46:13.420Z,0.20
2024-01-24T04:48:44.813Z,0.20
2024-01-24T04:51:13.366Z,0.10
2024-01-24T04:53:41.782Z,0.18
2024-01-24T04:56:10.029Z,0.10
2024-01-24T04:58:38.507Z,0.10
2024-01-24T05:01:06.685Z,0.10
2024-01-24T05:03:34.937Z,0.00
2024-01-24T05:06:09.912Z,0.00
2024-01-24T05:08:39.746Z,-0.10
2024-01-24T05:11:07.901Z,-0.30
2024-01-24T05:13:37.813Z,-0.38
2024-01-24T05:16:06.231Z,-0.50
2024-01-24T05:18:34.556Z,-0.50
2024-01-24T05:21:03.714Z,-0.60
2024-01-24T05:23:32.292Z,-0.70
2024-01-24T05:26:00.427Z,-0.70
2024-01-24T05:28:28.607Z,-0.80
2024-01-24T05:30:56.719Z,-0.90
2024-01-24T05:33:24.996Z,-0.98
2024-01-24T05:35:53.456Z,-1.00
2024-01-24T05:38:21.608Z,-1.00
2024-01-24T05:40:49.860Z,-0.94
2024-01-24T05:43:18.316Z,-0.90
2024-01-24T05:45:51.185Z,-0.90
2024-01-24T05:48:19.648Z,-0.90
2024-01-24T05:50:47.927Z,-0.90
2024-01-24T05:53:15.985Z,-0.92
2024-01-24T05:55:44.130Z,-0.90
2024-01-24T05:58:12.576Z,-0.80
2024-01-24T06:00:40.764Z,-0.90
2024-01-24T06:03:09.077Z,-1.00
2024-01-24T06:05:37.524Z,-0.98
2024-01-24T06:08:06.831Z,-0.82
2024-01-24T06:10:34.923Z,-0.80
2024-01-24T06:13:03.115Z,-0.78
2024-01-24T06:15:31.580Z,-0.74
2024-01-24T06:17:59.845Z,-0.90
2024-01-24T06:20:28.405Z,-0.80
2024-01-24T06:22:56.517Z,-0.80
2024-01-24T06:25:24.672Z,-0.80
2024-01-24T06:27:53.116Z,-0.80
2024-01-24T06:30:23.898Z,-0.80
2024-01-24T06:32:53.523Z,-0.72
2024-01-24T06:35:22.579Z,-0.70
2024-01-24T06:37:51.285Z,-0.60
2024-01-24T06:40:22.510Z,-0.60
2024-01-24T06:42:51.720Z,-0.70
2024-01-24T06:45:20.644Z,-0.60
2024-01-24T06:47:49.369Z,-0.50
2024-01-24T06:50:19.007Z,-0.46
2024-01-24T06:52:47.195Z,-0.40
2024-01-24T06:55:17.577Z,-0.40
2024-01-24T06:57:45.873Z,-0.40
2024-01-24T07:00:14.392Z,-0.30
2024-01-24T07:02:42.714Z,-0.30
2024-01-24T07:05:11.008Z,-0.30
2024-01-24T07:07:39.132Z,-0.30
2024-01-24T07:10:12.374Z,-0.26
2024-01-24T07:12:46.870Z,-0.20
2024-01-24T07:15:20.881Z,-0.20
2024-01-24T07:17:49.134Z,-0.20
2024-01-24T07:20:19.724Z,-0.20
2024-01-24T07:22:48.090Z,-0.30
2024-01-24T07:25:16.360Z,-0.20
2024-01-24T07:27:46.101Z,-0.30
2024-01-24T07:30:15.218Z,-0.40
2024-01-24T07:32:43.754Z,-0.30
2024-01-24T07:35:12.014Z,-0.28
2024-01-24T07:37:40.154Z,-0.28
2024-01-24T07:40:15.730Z,-0.22
2024-01-24T07:42:44.121Z,-0.22
2024-01-24T07:45:12.404Z,-0.20
2024-01-24T07:47:40.698Z,-0.22
2024-01-24T07:50:09.523Z,-0.20
2024-01-24T07:52:41.920Z,-0.14
2024-01-24T07:55:12.232Z,-0.08
2024-01-24T07:57:41.861Z,0.00
2024-01-24T08:00:17.680Z,0.08
2024-01-24T08:02:47.290Z,0.16
2024-01-24T08:05:19.503Z,0.20
2024-01-24T08:07:47.744Z,0.32
2024-01-24T08:10:16.921Z,0.42
2024-01-24T08:12:45.497Z,0.60
2024-01-24T08:15:13.722Z,0.70
2024-01-24T08:17:41.917Z,0.78
2024-01-24T08:20:10.462Z,0.88
2024-01-24T08:22:38.503Z,0.92
2024-01-24T08:25:07.626Z,1.00
2024-01-24T08:27:36.421Z,1.06
2024-01-24T08:30:05.462Z,1.16
2024-01-24T08:32:33.837Z,1.20
2024-01-24T08:35:02.053Z,1.20
2024-01-24T08:37:31.029Z,1.20
2024-01-24T08:39:59.149Z,1.30
2024-01-24T08:42:27.317Z,1.30
2024-01-24T08:44:55.560Z,1.40
2024-01-24T08:47:23.703Z,1.50
2024-01-24T08:49:54.281Z,1.60
2024-01-24T08:52:22.567Z,1.70
2024-01-24T08:54:51.753Z,1.64
2024-01-24T08:57:20.361Z,1.70
2024-01-24T08:59:49.020Z,1.80
2024-01-24T09:02:17.490Z,1.84
2024-01-24T09:04:47.810Z,1.90
2024-01-24T09:07:16.299Z,2.00
2024-01-24T09:09:44.740Z,2.10
2024-01-24T09:12:12.965Z,2.20
2024-01-24T09:14:41.224Z,2.20
2024-01-24T09:17:09.267Z,2.30
2024-01-24T09:19:37.791Z,2.40
2024-01-24T09:22:06.101Z,2.50
2024-01-24T09:24:34.868Z,2.50
2024-01-24T09:27:04.131Z,2.60
2024-01-24T09:29:32.320Z,2.78
2024-01-24T09:32:00.416Z,2.70
2024-01-24T09:34:28.910Z,2.80
2024-01-24T09:36:57.257Z,2.90
2024-01-24T09:39:26.607Z,2.90
2024-01-24T09:41:54.952Z,3.00
2024-01-24T09:44:25.313Z,3.10
2024-01-24T09:46:55.233Z,3.30
2024-01-24T09:49:23.355Z,3.30
2024-01-24T09:51:51.626Z,3.40
2024-01-24T09:54:20.286Z,3.60
2024-01-24T09:56:49.609Z,3.74
2024-01-24T09:59:18.516Z,3.90
2024-01-24T10:01:46.880Z,4.08
2024-01-24T10:04:16.427Z,4.10
2024-01-24T10:06:44.784Z,4.12
2024-01-24T10:09:12.938Z,4.26
2024-01-24T10:11:42.419Z,4.30
2024-01-24T10:14:10.616Z,4.26
2024-01-24T10:16:38.782Z,4.40
2024-01-24T10:19:06.875Z,4.50
2024-01-24T10:21:35.146Z,4.60
2024-01-24T10:24:03.809Z,4.70
2024-01-24T10:26:32.124Z,4.80
2024-01-24T10:29:00.432Z,4.82
2024-01-24T10:31:28.586Z,5.06
2024-01-24T10:33:57.484Z,5.18
2024-01-24T10:36:32.357Z,5.30
2024-01-24T10:39:05.313Z,5.20
2024-01-24T10:41:34.183Z,5.22
2024-01-24T10:44:11.758Z,5.30
2024-01-24T10:46:41.592Z,5.48
2024-01-24T10:49:13.920Z,5.44
2024-01-24T10:51:44.602Z,5.70
2024-01-24T10:54:16.226Z,5.86
2024-01-24T10:56:50.069Z,6.10
2024-01-24T10:59:19.218Z,6.40
2024-01-24T11:01:48.677Z,6.70
2024-01-24T11:04:22.365Z,6.60
2024-01-24T11:07:07.479Z,6.48
2024-01-24T11:09:47.212Z,6.30
2024-01-24T11:12:15.445Z,6.10
2024-01-24T11:14:46.049Z,6.14
2024-01-24T11:17:14.165Z,6.20
2024-01-24T11:19:42.541Z,6.30
2024-01-24T11:22:17.036Z,6.20
2024-01-24T11:24:54.460Z,6.32
2024-01-24T11:27:38.140Z,6.26
2024-01-24T11:30:08.224Z,6.18
2024-01-24T11:32:45.491Z,6.20
2024-01-24T11:35:37.261Z,6.28
2024-01-24T11:38:27.580Z,6.20
2024-01-24T11:41:11.657Z,6.10
2024-01-24T11:43:43.022Z,6.10
2024-01-24T11:46:11.634Z,6.10
2024-01-24T11:48:41.105Z,6.20
2024-01-24T11:51:10.660Z,6.18
2024-01-24T11:53:38.933Z,6.10
2024-01-24T11:56:08.236Z,6.00
2024-01-24T11:58:36.507Z,5.90
2024-01-24T12:01:12.003Z,5.90
2024-01-24T12:03:51.131Z,5.60
2024-01-24T12:06:20.300Z,5.60
2024-01-24T12:08:50.556Z,5.50
2024-01-24T12:11:20.002Z,5.38
2024-01-24T12:13:48.552Z,5.20
2024-01-24T12:16:16.772Z,5.06
2024-01-24T12:18:45.469Z,4.98
2024-01-24T12:21:13.883Z,4.66
2024-01-24T12:23:44.173Z,4.46
2024-01-24T12:26:12.353Z,4.30
2024-01-24T12:28:40.768Z,4.20
2024-01-24T12:31:09.010Z,4.00
2024-01-24T12:33:38.033Z,3.86
2024-01-24T12:36:07.343Z,3.90
2024-01-24T12:38:37.211Z,3.90
2024-01-24T12:41:05.756Z,3.86
2024-01-24T12:43:34.135Z,3.90
2024-01-24T12:46:09.219Z,4.14
2024-01-24T12:48:39.201Z,4.20
2024-01-24T12:51:08.122Z,4.14
2024-01-24T12:53:36.630Z,3.92
2024-01-24T12:56:05.280Z,3.90
2024-01-24T12:58:34.340Z,3.90
2024-01-24T13:01:02.785Z,3.90
2024-01-24T13:03:31.448Z,3.90
2024-01-24T13:06:00.729Z,3.82
2024-01-24T13:08:29.032Z,3.74
2024-01-24T13:10:57.930Z,3.70
2024-01-24T13:13:26.174Z,3.60
2024-01-24T13:15:55.080Z,3.60
2024-01-24T13:18:24.135Z,3.50
2024-01-24T13:20:52.390Z,3.40
2024-01-24T13:23:20.796Z,3.30
2024-01-24T13:25:48.853Z,3.28
2024-01-24T13:28:18.727Z,3.20
2024-01-24T13:30:47.074Z,3.20
2024-01-24T13:33:15.931Z,3.14
2024-01-24T13:35:44.155Z,3.10
2024-01-24T13:38:12.702Z,3.00
2024-01-24T13:40:41.278Z,2.90
2024-01-24T13:43:09.745Z,2.86
2024-01-24T13:45:40.867Z,2.76
2024-01-24T13:48:10.607Z,2.70
2024-01-24T13:50:39.137Z,2.70
2024-01-24T13:53:07.551Z,2.66
2024-01-24T13:55:35.858Z,2.68
2024-01-24T13:58:04.515Z,2.70
2024-01-24T14:00:32.986Z,2.60
2024-01-24T14:03:01.196Z,2.70
2024-01-24T14:05:29.896Z,2.76
2024-01-24T14:07:58.111Z,2.70
2024-01-24T14:10:26.178Z,2.70
2024-01-24T14:12:54.430Z,2.70
2024-01-24T14:15:32.677Z,2.70
2024-01-24T14:18:03.873Z,2.56
2024-01-24T14:20:32.289Z,2.58
2024-01-24T14:23:00.479Z,2.60
2024-01-24T14:25:28.578Z,2.60
2024-01-24T14:27:56.978Z,2.50
2024-01-24T14:30:26.088Z,2.50
2024-01-24T14:32:54.335Z,2.44
2024-01-24T14:35:24.312Z,2.40
2024-01-24T14:37:52.798Z,2.48
2024-01-24T14:40:21.211Z,2.40
2024-01-24T14:42:49.705Z,2.36
2024-01-24T14:45:17.940Z,2.26
2024-01-24T14:47:46.892Z,2.20
2024-01-24T14:50:15.220Z,2.30
2024-01-24T14:52:43.546Z,2.16
2024-01-24T14:55:11.849Z,2.20
2024-01-24T14:57:40.223Z,2.20
2024-01-24T15:00:11.860Z,2.22
2024-01-24T15:02:40.050Z,2.10
2024-01-24T15:05:09.519Z,2.00
2024-01-24T15:07:38.474Z,1.98
2024-01-24T15:10:08.935Z,1.80
2024-01-24T15:12:37.663Z,1.90
2024-01-24T15:15:06.586Z,1.94
2024-01-24T15:17:35.352Z,1.98
2024-01-24T15:20:04.910Z,1.90
2024-01-24T15:22:34.268Z,1.90
2024-01-24T15:25:04.465Z,1.90
2024-01-24T15:27:33.263Z,1.80
2024-01-24T15:30:01.749Z,1.78
2024-01-24T15:32:31.172Z,1.80
2024-01-24T15:34:59.573Z,1.88
2024-01-24T15:37:28.552Z,1.80
2024-01-24T15:39:57.280Z,1.80
2024-01-24T15:42:27.720Z,1.86
2024-01-24T15:44:56.177Z,1.80
2024-01-24T15:47:25.165Z,1.80
2024-01-24T15:49:53.424Z,1.80
2024-01-24T15:52:22.088Z,1.78
2024-01-24T15:54:50.724Z,1.80
2024-01-24T15:57:18.933Z,1.70
2024-01-24T15:59:47.236Z,1.70
2024-01-24T16:02:16.162Z,1.68
2024-01-24T16:04:44.595Z,1.70
2024-01-24T16:07:13.129Z,1.70
2024-01-24T16:09:41.604Z,1.60
2024-01-24T16:12:10.494Z,1.60
2024-01-24T16:14:38.616Z,1.50
2024-01-24T16:17:07.695Z,1.62
2024-01-24T16:19:37.534Z,1.60
2024-01-24T16:22:05.859Z,1.64
2024-01-24T16:24:34.423Z,1.70
2024-01-24T16:27:02.595Z,1.70
2024-01-24T16:29:30.748Z,1.70
2024-01-24T16:31:58.842Z,1.80
2024-01-24T16:34:27.006Z,1.80
2024-01-24T16:36:55.278Z,1.70
2024-01-24T16:39:23.389Z,1.80
2024-01-24T16:41:51.669Z,1.86
2024-01-24T16:44:22.442Z,1.80
2024-01-24T16:46:50.598Z,1.80
2024-01-24T16:49:18.793Z,1.90
2024-01-24T16:51:47.078Z,1.80
2024-01-24T16:54:15.227Z,1.80
2024-01-24T16:56:43.368Z,1.80
2024-01-24T16:59:12.367Z,1.80
2024-01-24T17:01:40.428Z,1.80
2024-01-24T17:04:08.705Z,1.82
2024-01-24T17:06:39.580Z,1.90
2024-01-24T17:09:08.472Z,1.80
2024-01-24T17:11:36.594Z,1.86
2024-01-24T17:14:04.826Z,1.80
2024-01-24T17:16:32.961Z,1.80
2024-01-24T17:19:01.317Z,1.90
2024-01-24T17:21:29.405Z,1.96
2024-01-24T17:23:57.600Z,2.00
2024-01-24T17:26:25.698Z,2.10
2024-01-24T17:28:55.856Z,2.10
2024-01-24T17:31:25.298Z,2.10
2024-01-24T17:33:53.556Z,2.00
2024-01-24T17:36:21.817Z,1.90
2024-01-24T17:38:50.542Z,1.90
2024-01-24T17:41:19.086Z,1.90
2024-01-24T17:43:47.351Z,1.90
2024-01-24T17:46:15.507Z,2.00
2024-01-24T17:48:44.423Z,2.00
2024-01-24T17:51:14.106Z,2.02
2024-01-24T17:53:43.313Z,2.02
2024-01-24T17:56:12.510Z,2.00
2024-01-24T17:58:40.899Z,2.00
2024-01-24T18:01:09.159Z,2.00
2024-01-24T18:03:37.594Z,2.04
2024-01-24T18:06:06.319Z,2.04
2024-01-24T18:08:34.932Z,2.04
2024-01-24T18:11:03.258Z,2.00
2024-01-24T18:13:31.272Z,2.00
2024-01-24T18:15:59.444Z,2.10
2024-01-24T18:18:33.140Z,2.10
2024-01-24T18:21:01.404Z,2.10
2024-01-24T18:23:29.556Z,2.10
2024-01-24T18:25:58.170Z,2.10
2024-01-24T18:28:26.372Z,2.00
2024-01-24T18:30:54.470Z,2.04
2024-01-24T18:33:23.612Z,2.10
2024-01-24T18:35:52.657Z,2.02
2024-01-24T18:38:20.730Z,2.06
2024-01-24T18:40:48.765Z,2.00
2024-01-24T18:43:17.082Z,2.00
2024-01-24T18:45:45.286Z,2.08
2024-01-24T18:48:14.107Z,2.10
2024-01-24T18:50:42.367Z,2.10
2024-01-24T18:53:11.677Z,2.02
2024-01-24T18:55:39.885Z,2.00
2024-01-24T18:58:08.223Z,2.06
2024-01-24T19:00:36.539Z,2.00
2024-01-24T19:03:04.964Z,2.00
2024-01-24T19:05:37.578Z,2.10
2024-01-24T19:08:12.197Z,2.10
2024-01-24T19:10:40.696Z,2.10
2024-01-24T19:13:08.988Z,2.10
2024-01-24T19:15:38.454Z,2.10
2024-01-24T19:18:14.212Z,2.00
2024-01-24T19:20:45.455Z,1.96
2024-01-24T19:23:16.468Z,1.90
2024-01-24T19:25:48.149Z,1.90
2024-01-24T19:28:16.371Z,1.80
2024-01-24T19:30:44.566Z,1.80
2024-01-24T19:33:12.880Z,1.80
2024-01-24T19:35:41.843Z,1.76
2024-01-24T19:38:11.129Z,1.70
2024-01-24T19:40:41.693Z,1.80
2024-01-24T19:43:09.750Z,1.70
2024-01-24T19:45:40.186Z,1.80
2024-01-24T19:48:08.578Z,1.80
2024-01-24T19:50:37.136Z,1.90
2024-01-24T19:53:10.583Z,1.90
2024-01-24T19:55:40.917Z,1.96
2024-01-24T19:58:09.019Z,2.00
2024-01-24T20:00:37.375Z,2.00
2024-01-24T20:03:05.639Z,2.00
2024-01-24T20:05:35.574Z,2.00
2024-01-24T20:08:03.770Z,2.00
2024-01-24T20:10:31.801Z,2.00
2024-01-24T20:13:00.062Z,2.10
2024-01-24T20:15:28.817Z,2.00
2024-01-24T20:17:57.143Z,2.02
2024-01-24T20:20:25.550Z,2.02
2024-01-24T20:22:53.772Z,2.00
2024-01-24T20:25:21.851Z,1.82
2024-01-24T20:27:52.741Z,1.80
2024-01-24T20:30:21.055Z,1.78
2024-01-24T20:32:57.308Z,1.80
2024-01-24T20:35:32.035Z,1.64
2024-01-24T20:38:01.284Z,1.70
2024-01-24T20:40:31.424Z,1.70
2024-01-24T20:42:59.524Z,1.70
2024-01-24T20:45:27.777Z,1.60
2024-01-24T20:48:00.518Z,1.68
2024-01-24T20:50:32.415Z,1.70
2024-01-24T20:53:00.538Z,1.70
2024-01-24T20:55:28.746Z,1.70
2024-01-24T20:57:56.944Z,1.80
2024-01-24T21:00:25.477Z,1.78
2024-01-24T21:02:54.213Z,1.74
2024-01-24T21:05:23.713Z,1.74
2024-01-24T21:07:52.323Z,1.80
2024-01-24T21:10:21.473Z,1.80
2024-01-24T21:12:50.058Z,1.82
2024-01-24T21:15:18.260Z,1.90
2024-01-24T21:17:47.344Z,1.90
2024-01-24T21:20:15.914Z,1.90
2024-01-24T21:22:46.705Z,1.90
2024-01-24T21:25:17.819Z,1.90
2024-01-24T21:27:46.088Z,1.90
2024-01-24T21:30:14.291Z,2.00
2024-01-24T21:32:42.431Z,1.84
2024-01-24T21:35:10.739Z,1.88
2024-01-24T21:37:38.977Z,1.90
2024-01-24T21:40:08.831Z,1.80
2024-01-24T21:42:37.254Z,1.80
2024-01-24T21:45:06.091Z,1.80
2024-01-24T21:47:34.144Z,1.84
2024-01-24T21:50:04.285Z,1.90
2024-01-24T21:52:32.599Z,1.92
2024-01-24T21:55:00.835Z,1.98
2024-01-24T21:57:29.072Z,1.80
2024-01-24T21:59:57.307Z,1.86
2024-01-24T22:02:25.516Z,1.90
2024-01-24T22:04:53.765Z,2.00
2024-01-24T22:07:22.192Z,2.00
2024-01-24T22:09:52.611Z,2.00
2024-01-24T22:12:20.736Z,2.00
2024-01-24T22:14:48.984Z,2.00
2024-01-24T22:17:17.180Z,2.00
2024-01-24T22:19:45.414Z,2.10
2024-01-24T22:22:13.757Z,2.10
2024-01-24T22:24:42.058Z,2.06
2024-01-24T22:27:10.250Z,2.10
2024-01-24T22:29:38.549Z,2.10
2024-01-24T22:32:07.101Z,2.10
2024-01-24T22:34:35.483Z,2.04
2024-01-24T22:37:04.123Z,2.02
2024-01-24T22:39:32.402Z,1.86
2024-01-24T22:42:01.236Z,1.70
2024-01-24T22:44:29.491Z,1.70
2024-01-24T22:46:57.841Z,1.64
2024-01-24T22:49:26.327Z,1.52
2024-01-24T22:51:54.644Z,1.40
2024-01-24T22:54:22.916Z,1.40
2024-01-24T22:56:51.096Z,1.32
2024-01-24T22:59:19.179Z,1.20
2024-01-24T23:01:47.432Z,1.06
2024-01-24T23:04:15.674Z,1.08
2024-01-24T23:06:44.280Z,1.16
2024-01-24T23:09:13.049Z,1.20
2024-01-24T23:11:41.978Z,1.24
2024-01-24T23:14:10.126Z,1.42
2024-01-24T23:16:38.192Z,1.60
2024-01-24T23:19:06.348Z,1.68
2024-01-24T23:21:34.500Z,1.78
2024-01-24T23:24:04.118Z,1.90
2024-01-24T23:26:32.197Z,1.96
2024-01-24T23:29:00.777Z,2.00
2024-01-24T23:31:28.943Z,1.90
2024-01-24T23:33:57.116Z,1.90
2024-01-24T23:36:25.816Z,1.92
2024-01-24T23:38:54.451Z,2.00
2024-01-24T23:41:23.129Z,1.92
2024-01-24T23:43:52.336Z,2.00
2024-01-24T23:46:20.627Z,2.10
2024-01-24T23:48:49.297Z,2.10
2024-01-24T23:51:18.238Z,2.18
2024-01-24T23:53:46.358Z,2.20
2024-01-24T23:56:14.624Z,2.20
2024-01-24T23:58:42.705Z,2.20
